createdAt,value
2023-03-08T00:02:37.689Z,6.73
2023-03-08T00:05:21.376Z,5.07
2023-03-08T00:08:04.992Z,5.83
2023-03-08T00:10:48.773Z,5.90
2023-03-08T00:13:32.570Z,6.20
2023-03-08T00:16:16.450Z,5.90
2023-03-08T00:19:01.653Z,4.53
2023-03-08T00:21:45.447Z,6.80
2023-03-08T00:24:29.180Z,7.53
2023-03-08T00:27:12.943Z,6.80
2023-03-08T00:29:56.893Z,11.13
2023-03-08T00:32:43.192Z,10.77
2023-03-08T00:35:31.160Z,8.47
2023-03-08T00:38:14.927Z,10.60
2023-03-08T00:40:58.786Z,9.93
2023-03-08T00:43:43.582Z,11.77
2023-03-08T00:46:27.657Z,13.57
2023-03-08T00:49:12.665Z,18.30
2023-03-08T00:51:57.839Z,19.93
2023-03-08T00:54:41.729Z,30.20
2023-03-08T00:57:25.440Z,26.90
2023-03-08T01:00:12.815Z,33.33
2023-03-08T01:02:57.668Z,59.17
2023-03-08T01:05:45.535Z,35.83
2023-03-08T01:08:31.337Z,38.00
2023-03-08T01:11:21.238Z,44.77
2023-03-08T01:14:06.613Z,52.77
2023-03-08T01:16:52.499Z,47.93
2023-03-08T01:19:36.231Z,40.60
2023-03-08T01:22:21.291Z,42.93
2023-03-08T01:25:07.208Z,45.13
2023-03-08T01:27:51.101Z,36.63
2023-03-08T01:30:35.256Z,36.80
2023-03-08T01:33:21.070Z,28.80
2023-03-08T01:36:08.598Z,26.47
2023-03-08T01:38:53.198Z,24.83
2023-03-08T01:41:39.389Z,23.97
2023-03-08T01:44:23.538Z,22.03
2023-03-08T01:47:15.152Z,22.97
2023-03-08T01:50:17.881Z,21.67
2023-03-08T01:53:01.769Z,25.77
2023-03-08T01:55:45.635Z,21.57
2023-03-08T01:58:31.704Z,20.43
2023-03-08T02:01:15.984Z,20.57
2023-03-08T02:04:00.713Z,25.53
2023-03-08T02:06:45.559Z,25.60
2023-03-08T02:09:31.378Z,27.67
2023-03-08T02:12:16.403Z,32.60
2023-03-08T02:15:03.798Z,30.40
2023-03-08T02:17:48.460Z,31.30
2023-03-08T02:20:34.273Z,34.00
2023-03-08T02:23:26.976Z,34.40
2023-03-08T02:26:10.832Z,31.10
2023-03-08T02:28:54.642Z,33.27
2023-03-08T02:31:38.614Z,31.13
2023-03-08T02:34:22.517Z,31.97
2023-03-08T02:37:06.277Z,33.43
2023-03-08T02:39:51.558Z,27.10
2023-03-08T02:42:35.458Z,34.90
2023-03-08T02:45:19.386Z,30.17
2023-03-08T02:48:03.487Z,26.17
2023-03-08T02:50:47.489Z,29.17
2023-03-08T02:53:31.545Z,26.37
2023-03-08T02:56:17.932Z,22.13
2023-03-08T02:59:02.351Z,28.27
2023-03-08T03:01:46.204Z,21.20
2023-03-08T03:04:31.351Z,22.10
2023-03-08T03:07:15.546Z,21.40
2023-03-08T03:10:00.062Z,21.97
2023-03-08T03:12:45.560Z,23.63
2023-03-08T03:15:34.276Z,27.17
2023-03-08T03:18:18.126Z,32.10
2023-03-08T03:21:05.254Z,39.10
2023-03-08T03:23:49.124Z,39.83
2023-03-08T03:26:35.826Z,40.07
2023-03-08T03:29:20.936Z,38.67
2023-03-08T03:32:09.423Z,42.37
2023-03-08T03:34:53.342Z,35.33
2023-03-08T03:37:38.727Z,33.77
2023-03-08T03:40:23.350Z,34.00
2023-03-08T03:43:12.662Z,34.30
2023-03-08T03:45:59.670Z,38.30
2023-03-08T03:48:44.714Z,34.13
2023-03-08T03:51:29.940Z,33.27
2023-03-08T03:54:25.386Z,32.67
2023-03-08T03:57:10.352Z,33.83
2023-03-08T03:59:57.580Z,31.03
2023-03-08T04:02:43.066Z,32.00
2023-03-08T04:05:29.786Z,32.07
2023-03-08T04:08:13.706Z,35.50
2023-03-08T04:11:01.755Z,41.87
2023-03-08T04:13:46.578Z,38.33
2023-03-08T04:16:32.420Z,34.97
2023-03-08T04:19:22.185Z,34.30
2023-03-08T04:22:09.981Z,35.03
2023-03-08T04:25:01.347Z,33.33
2023-03-08T04:28:04.893Z,39.40
2023-03-08T04:30:49.746Z,34.77
2023-03-08T04:33:35.522Z,38.60
2023-03-08T04:36:21.837Z,33.93
2023-03-08T04:39:06.529Z,30.63
2023-03-08T04:41:51.086Z,28.07
2023-03-08T04:44:47.408Z,25.27
2023-03-08T04:47:35.364Z,23.67
2023-03-08T04:50:19.782Z,23.00
2023-03-08T04:53:05.020Z,29.20
2023-03-08T04:55:49.650Z,26.57
2023-03-08T04:58:34.728Z,29.00
2023-03-08T05:01:20.650Z,43.57
2023-03-08T05:04:04.628Z,29.80
2023-03-08T05:06:53.847Z,26.67
2023-03-08T05:09:43.171Z,28.53
2023-03-08T05:12:27.417Z,25.20
2023-03-08T05:15:14.691Z,23.67
2023-03-08T05:17:58.711Z,32.27
2023-03-08T05:20:42.626Z,27.80
2023-03-08T05:23:28.988Z,22.30
2023-03-08T05:26:17.500Z,23.07
2023-03-08T05:29:03.581Z,21.50
2023-03-08T05:31:51.273Z,17.93
2023-03-08T05:34:36.038Z,18.73
2023-03-08T05:37:27.343Z,20.80
2023-03-08T05:40:14.604Z,16.60
2023-03-08T05:43:02.757Z,24.57
2023-03-08T05:45:56.700Z,19.67
2023-03-08T05:48:41.756Z,14.17
2023-03-08T05:51:25.854Z,15.77
2023-03-08T05:54:10.910Z,13.17
2023-03-08T05:56:56.307Z,12.80
2023-03-08T05:59:44.637Z,6.93
2023-03-08T06:02:31.954Z,8.63
2023-03-08T06:05:15.962Z,11.40
2023-03-08T06:08:01.256Z,10.53
2023-03-08T06:10:45.310Z,9.00
2023-03-08T06:13:29.779Z,11.57
2023-03-08T06:16:15.910Z,12.03
2023-03-08T06:18:59.981Z,12.60
2023-03-08T06:21:44.327Z,10.80
2023-03-08T06:24:29.098Z,9.77
2023-03-08T06:27:15.412Z,10.43
2023-03-08T06:30:00.103Z,11.53
2023-03-08T06:32:46.042Z,9.00
2023-03-08T06:35:30.093Z,10.57
2023-03-08T06:38:18.151Z,6.77
2023-03-08T06:41:04.084Z,7.87
2023-03-08T06:43:49.219Z,8.13
2023-03-08T06:46:33.328Z,43.60
2023-03-08T06:49:18.613Z,14.10
2023-03-08T06:52:02.534Z,9.40
2023-03-08T06:54:46.432Z,12.77
2023-03-08T06:57:30.537Z,14.17
2023-03-08T07:00:15.906Z,16.33
2023-03-08T07:02:59.878Z,20.77
2023-03-08T07:05:45.131Z,15.03
2023-03-08T07:08:28.951Z,15.20
2023-03-08T07:11:12.809Z,14.40
2023-03-08T07:13:56.624Z,16.83
2023-03-08T07:16:40.576Z,17.23
2023-03-08T07:19:24.607Z,15.47
2023-03-08T07:22:10.531Z,16.10
2023-03-08T07:24:54.464Z,21.73
2023-03-08T07:27:38.334Z,28.57
2023-03-08T07:30:22.435Z,17.13
2023-03-08T07:33:06.420Z,22.80
2023-03-08T07:35:50.416Z,18.87
2023-03-08T07:38:35.655Z,22.47
2023-03-08T07:41:19.433Z,20.23
2023-03-08T07:44:03.772Z,18.57
2023-03-08T07:46:48.102Z,136.77
2023-03-08T07:49:32.162Z,20.37
2023-03-08T07:52:16.365Z,18.73
2023-03-08T07:55:02.358Z,13.83
2023-03-08T07:57:47.631Z,13.53
2023-03-08T08:00:31.607Z,17.13
2023-03-08T08:03:15.582Z,22.80
2023-03-08T08:06:04.118Z,14.67
2023-03-08T08:08:47.884Z,14.43
2023-03-08T08:11:34.314Z,13.97
2023-03-08T08:14:18.181Z,13.17
2023-03-08T08:17:02.212Z,12.87
2023-03-08T08:19:45.967Z,14.47
2023-03-08T08:22:29.784Z,14.83
2023-03-08T08:25:13.523Z,16.47
2023-03-08T08:27:58.791Z,15.13
2023-03-08T08:30:42.644Z,13.80
2023-03-08T08:33:26.581Z,16.50
2023-03-08T08:36:14.382Z,13.23
2023-03-08T08:38:58.190Z,18.53
2023-03-08T08:41:41.924Z,18.47
2023-03-08T08:44:27.228Z,21.57
2023-03-08T08:47:11.214Z,16.03
2023-03-08T08:49:55.131Z,19.57
2023-03-08T08:52:39.024Z,20.70
2023-03-08T08:55:22.767Z,16.10
2023-03-08T08:58:07.462Z,20.00
2023-03-08T09:00:52.729Z,18.47
2023-03-08T09:03:36.655Z,18.27
2023-03-08T09:06:21.956Z,3.37
2023-03-08T09:09:06.807Z,3.27
2023-03-08T09:11:55.275Z,2.10
2023-03-08T09:14:39.642Z,3.97
2023-03-08T09:17:24.936Z,4.45
2023-03-08T09:20:10.555Z,2.35
2023-03-08T09:22:54.305Z,3.13
2023-03-08T09:25:38.114Z,7.65
2023-03-08T09:28:21.877Z,5.95
2023-03-08T09:31:12.109Z,3.95
2023-03-08T09:33:58.173Z,2.97
2023-03-08T09:36:42.480Z,3.40
2023-03-08T09:39:26.473Z,2.47
2023-03-08T09:42:20.854Z,4.23
2023-03-08T09:45:16.284Z,3.30
2023-03-08T09:48:05.469Z,2.97
2023-03-08T09:50:52.570Z,5.15
2023-03-08T09:53:41.134Z,4.03
2023-03-08T09:56:31.121Z,2.30
2023-03-08T09:59:20.652Z,6.00
2023-03-08T10:02:18.246Z,2.50
2023-03-08T10:05:13.752Z,3.63
2023-03-08T10:08:05.837Z,3.53
2023-03-08T10:10:56.311Z,2.10
2023-03-08T10:13:42.841Z,2.35
2023-03-08T10:16:29.771Z,2.60
2023-03-08T10:19:19.032Z,2.92
2023-03-08T10:22:10.572Z,2.80
2023-03-08T10:24:59.562Z,5.45
2023-03-08T10:27:43.732Z,2.80
2023-03-08T10:30:29.608Z,3.15
2023-03-08T10:33:15.262Z,3.50
2023-03-08T10:36:02.361Z,2.63
2023-03-08T10:38:58.771Z,3.67
2023-03-08T10:41:46.368Z,2.45
2023-03-08T10:44:40.049Z,3.53
2023-03-08T10:47:26.583Z,3.08
2023-03-08T10:50:16.905Z,5.25
2023-03-08T10:53:11.428Z,2.95
2023-03-08T10:55:55.442Z,4.53
2023-03-08T10:58:41.909Z,5.60
2023-03-08T11:01:27.942Z,3.45
2023-03-08T11:04:17.133Z,3.30
2023-03-08T11:07:12.838Z,10.52
2023-03-08T11:10:16.082Z,4.35
2023-03-08T11:13:04.591Z,22.30
2023-03-08T11:15:57.028Z,10.25
2023-03-08T11:18:54.588Z,4.15
2023-03-08T11:21:51.349Z,5.03
2023-03-08T11:24:54.088Z,2.92
2023-03-08T11:27:50.273Z,6.90
2023-03-08T11:30:45.357Z,3.72
2023-03-08T11:33:55.974Z,3.83
2023-03-08T11:36:48.195Z,7.47
2023-03-08T11:39:34.586Z,2.80
2023-03-08T11:42:27.137Z,2.30
2023-03-08T11:45:22.417Z,4.30
2023-03-08T11:48:34.299Z,2.63
2023-03-08T11:51:23.944Z,2.13
2023-03-08T11:54:17.083Z,5.43
2023-03-08T11:57:03.217Z,2.67
2023-03-08T11:59:51.853Z,3.25
2023-03-08T12:02:40.001Z,4.47
2023-03-08T12:05:29.392Z,3.42
2023-03-08T12:08:18.627Z,3.17
2023-03-08T12:11:06.885Z,6.50
2023-03-08T12:13:54.620Z,3.13
2023-03-08T12:16:46.279Z,3.40
2023-03-08T12:19:39.170Z,3.58
2023-03-08T12:22:45.605Z,3.45
2023-03-08T12:25:33.850Z,3.05
2023-03-08T12:28:24.528Z,2.15
2023-03-08T12:31:27.830Z,2.55
2023-03-08T12:34:27.480Z,3.28
2023-03-08T12:37:32.825Z,3.30
2023-03-08T12:40:40.458Z,2.15
2023-03-08T12:43:31.991Z,3.97
2023-03-08T12:46:15.887Z,2.60
2023-03-08T12:48:59.897Z,2.25
2023-03-08T12:51:43.899Z,3.47
2023-03-08T12:54:31.120Z,2.20
2023-03-08T12:57:24.465Z,3.03
2023-03-08T13:00:26.905Z,4.82
2023-03-08T13:03:29.538Z,2.25
2023-03-08T13:06:33.773Z,2.50
2023-03-08T13:09:30.014Z,3.20
2023-03-08T13:12:24.295Z,3.42
2023-03-08T13:15:26.790Z,2.65
2023-03-08T13:18:17.094Z,4.65
2023-03-08T13:21:19.824Z,3.05
2023-03-08T13:24:11.265Z,2.20
2023-03-08T13:27:08.555Z,3.15
2023-03-08T13:29:55.061Z,2.78
2023-03-08T13:32:40.805Z,3.05
2023-03-08T13:35:25.025Z,3.22
2023-03-08T13:38:08.812Z,4.07
2023-03-08T13:40:53.323Z,2.55
2023-03-08T13:43:37.571Z,2.35
2023-03-08T13:46:23.870Z,3.13
2023-03-08T13:49:15.899Z,8.65
2023-03-08T13:52:02.078Z,3.22
2023-03-08T13:54:48.664Z,8.98
2023-03-08T13:57:38.659Z,4.05
2023-03-08T14:00:31.404Z,2.33
2023-03-08T14:03:22.005Z,3.67
2023-03-08T14:06:06.317Z,4.57
2023-03-08T14:08:51.512Z,3.28
2023-03-08T14:11:38.244Z,4.65
2023-03-08T14:14:30.570Z,2.90
2023-03-08T14:17:21.668Z,3.33
2023-03-08T14:20:20.522Z,3.15
2023-03-08T14:23:04.799Z,5.38
2023-03-08T14:25:58.157Z,3.78
2023-03-08T14:28:43.309Z,2.53
2023-03-08T14:31:28.274Z,4.47
2023-03-08T14:34:23.951Z,3.67
2023-03-08T14:37:23.162Z,3.95
2023-03-08T14:40:26.341Z,1.83
2023-03-08T14:43:17.693Z,3.10
2023-03-08T14:46:03.904Z,3.67
2023-03-08T14:48:59.294Z,3.10
2023-03-08T14:51:44.189Z,2.78
2023-03-08T14:54:34.857Z,2.60
2023-03-08T14:57:21.203Z,3.80
2023-03-08T15:00:14.226Z,3.83
2023-03-08T15:02:58.600Z,3.15
2023-03-08T15:05:42.765Z,5.82
2023-03-08T15:08:27.283Z,5.57
2023-03-08T15:11:12.733Z,4.03
2023-03-08T15:13:56.841Z,7.22
2023-03-08T15:16:40.936Z,10.63
2023-03-08T15:19:24.909Z,6.03
2023-03-08T15:22:09.052Z,4.30
2023-03-08T15:24:52.935Z,4.68
2023-03-08T15:27:38.476Z,3.47
2023-03-08T15:30:23.879Z,3.10
2023-03-08T15:33:07.678Z,3.65
2023-03-08T15:35:52.105Z,3.40
2023-03-08T15:38:36.337Z,4.97
2023-03-08T15:41:20.500Z,5.75
2023-03-08T15:44:06.926Z,4.10
2023-03-08T15:46:52.722Z,10.63
2023-03-08T15:49:37.130Z,10.63
2023-03-08T15:52:23.361Z,6.38
2023-03-08T15:55:11.802Z,5.25
2023-03-08T15:57:56.259Z,5.65
2023-03-08T16:00:41.871Z,29.52
2023-03-08T16:03:31.109Z,16.00
2023-03-08T16:06:17.737Z,58.50
2023-03-08T16:09:01.638Z,12.02
2023-03-08T16:11:48.130Z,15.73
2023-03-08T16:14:32.484Z,22.40
2023-03-08T16:17:19.230Z,32.95
2023-03-08T16:20:05.276Z,23.40
2023-03-08T16:22:50.182Z,27.05
2023-03-08T16:25:34.423Z,18.67
2023-03-08T16:28:18.445Z,22.02
2023-03-08T16:31:02.465Z,18.77
2023-03-08T16:33:48.068Z,25.00
2023-03-08T16:36:32.360Z,34.23
2023-03-08T16:39:16.703Z,37.10
2023-03-08T16:42:00.622Z,24.13
2023-03-08T16:44:51.234Z,26.37
2023-03-08T16:47:35.309Z,23.00
2023-03-08T16:50:20.990Z,16.67
2023-03-08T16:53:05.828Z,12.57
2023-03-08T16:55:50.608Z,10.80
2023-03-08T16:58:34.707Z,13.13
2023-03-08T17:01:20.399Z,18.10
2023-03-08T17:04:04.309Z,12.67
2023-03-08T17:06:50.154Z,10.63
2023-03-08T17:09:33.860Z,8.50
2023-03-08T17:12:19.509Z,9.77
2023-03-08T17:15:04.818Z,9.57
2023-03-08T17:17:48.610Z,11.10
2023-03-08T17:20:32.749Z,28.30
2023-03-08T17:23:18.543Z,21.97
2023-03-08T17:26:05.668Z,15.83
2023-03-08T17:28:50.392Z,10.80
2023-03-08T17:31:34.379Z,13.07
2023-03-08T17:34:18.440Z,12.87
2023-03-08T17:37:02.275Z,15.20
2023-03-08T17:39:47.505Z,8.57
2023-03-08T17:42:31.229Z,11.97
2023-03-08T17:45:16.165Z,12.17
2023-03-08T17:48:02.810Z,15.87
2023-03-08T17:50:47.238Z,14.83
2023-03-08T17:53:31.381Z,8.67
2023-03-08T17:56:18.418Z,10.17
2023-03-08T17:59:03.879Z,10.37
2023-03-08T18:01:47.968Z,12.63
2023-03-08T18:04:32.049Z,14.47
2023-03-08T18:07:17.334Z,11.60
2023-03-08T18:10:02.002Z,5.73
2023-03-08T18:12:47.454Z,4.93
2023-03-08T18:15:31.241Z,5.40
2023-03-08T18:18:15.004Z,5.17
2023-03-08T18:21:12.175Z,5.30
2023-03-08T18:23:56.818Z,6.40
2023-03-08T18:26:40.644Z,5.60
2023-03-08T18:29:26.185Z,5.13
2023-03-08T18:32:10.192Z,6.63
2023-03-08T18:34:54.124Z,6.00
2023-03-08T18:37:38.024Z,9.50
2023-03-08T18:40:21.953Z,9.80
2023-03-08T18:43:05.861Z,8.23
2023-03-08T18:45:55.600Z,12.13
2023-03-08T18:48:39.428Z,10.27
2023-03-08T18:51:23.331Z,10.90
2023-03-08T18:54:09.158Z,11.80
2023-03-08T18:56:54.285Z,10.47
2023-03-08T18:59:38.276Z,9.40
2023-03-08T19:02:28.248Z,7.33
2023-03-08T19:05:12.797Z,6.87
2023-03-08T19:07:56.629Z,7.90
2023-03-08T19:10:40.402Z,7.53
2023-03-08T19:13:24.324Z,6.27
2023-03-08T19:16:18.761Z,8.33
2023-03-08T19:19:06.546Z,8.33
2023-03-08T19:21:50.865Z,9.93
2023-03-08T19:24:34.693Z,19.13
2023-03-08T19:27:18.556Z,11.23
2023-03-08T19:30:02.758Z,7.30
2023-03-08T19:32:49.640Z,4.40
2023-03-08T19:35:36.930Z,6.53
2023-03-08T19:38:20.685Z,6.03
2023-03-08T19:41:04.478Z,5.47
2023-03-08T19:43:48.386Z,6.00
2023-03-08T19:46:32.378Z,4.67
2023-03-08T19:49:21.063Z,3.80
2023-03-08T19:52:07.615Z,4.83
2023-03-08T19:54:51.363Z,4.57
2023-03-08T19:57:35.278Z,3.80
2023-03-08T20:00:20.229Z,3.63
2023-03-08T20:03:04.391Z,4.30
2023-03-08T20:05:48.910Z,4.40
2023-03-08T20:08:36.193Z,7.50
2023-03-08T20:11:20.365Z,9.13
2023-03-08T20:14:04.915Z,13.43
2023-03-08T20:16:49.047Z,14.13
2023-03-08T20:19:34.228Z,11.23
2023-03-08T20:22:18.277Z,9.63
2023-03-08T20:25:03.885Z,5.37
2023-03-08T20:27:47.993Z,16.77
2023-03-08T20:30:32.148Z,20.47
2023-03-08T20:33:16.817Z,41.17
2023-03-08T20:36:02.258Z,35.77
2023-03-08T20:38:46.744Z,18.63
2023-03-08T20:41:32.277Z,17.13
2023-03-08T20:44:16.291Z,13.73
2023-03-08T20:47:00.394Z,48.00
2023-03-08T20:49:44.721Z,46.43
2023-03-08T20:52:29.084Z,24.87
2023-03-08T20:55:13.208Z,12.93
2023-03-08T20:57:58.733Z,9.17
2023-03-08T21:00:42.844Z,6.37
2023-03-08T21:03:27.795Z,15.07
2023-03-08T21:06:13.462Z,16.30
2023-03-08T21:08:58.442Z,13.63
2023-03-08T21:11:43.707Z,14.33
2023-03-08T21:14:30.168Z,13.37
2023-03-08T21:17:14.175Z,18.77
2023-03-08T21:19:58.476Z,19.40
2023-03-08T21:22:46.418Z,15.83
2023-03-08T21:25:30.793Z,14.20
2023-03-08T21:28:17.540Z,14.23
2023-03-08T21:31:03.282Z,7.20
2023-03-08T21:33:49.095Z,8.50
2023-03-08T21:36:33.753Z,12.07
2023-03-08T21:39:17.920Z,11.33
2023-03-08T21:42:01.979Z,9.77
2023-03-08T21:44:46.101Z,9.17
2023-03-08T21:47:31.441Z,13.33
2023-03-08T21:50:15.426Z,18.53
2023-03-08T21:52:59.572Z,10.90
2023-03-08T21:55:43.718Z,14.07
2023-03-08T21:58:28.034Z,13.93
2023-03-08T22:01:20.165Z,11.07
2023-03-08T22:04:06.898Z,16.37
2023-03-08T22:06:50.959Z,15.43
2023-03-08T22:09:34.929Z,8.53
2023-03-08T22:12:20.086Z,12.77
2023-03-08T22:15:04.398Z,9.83
2023-03-08T22:17:48.421Z,9.03
2023-03-08T22:20:33.884Z,13.83
2023-03-08T22:23:18.372Z,11.37
2023-03-08T22:26:02.474Z,9.60
2023-03-08T22:28:46.916Z,11.27
2023-03-08T22:31:31.738Z,14.60
2023-03-08T22:34:15.861Z,14.20
2023-03-08T22:37:01.725Z,9.60
2023-03-08T22:39:45.805Z,8.20
2023-03-08T22:42:29.845Z,11.07
2023-03-08T22:45:14.800Z,10.10
2023-03-08T22:48:00.773Z,11.33
2023-03-08T22:50:45.061Z,9.33
2023-03-08T22:53:30.595Z,6.70
2023-03-08T22:56:21.011Z,9.30
2023-03-08T22:59:05.287Z,9.87
2023-03-08T23:01:49.422Z,11.43
2023-03-08T23:04:33.484Z,14.17
2023-03-08T23:07:17.770Z,13.27
2023-03-08T23:10:04.412Z,12.07
2023-03-08T23:12:48.761Z,17.23
2023-03-08T23:15:32.783Z,16.37
2023-03-08T23:18:16.794Z,14.27
2023-03-08T23:21:04.086Z,17.60
2023-03-08T23:23:48.460Z,15.40
2023-03-08T23:26:34.271Z,15.33
2023-03-08T23:29:18.443Z,13.60
2023-03-08T23:32:02.523Z,14.53
2023-03-08T23:34:46.680Z,15.20
2023-03-08T23:37:30.891Z,10.40
2023-03-08T23:40:16.041Z,9.47
2023-03-08T23:43:01.701Z,15.63
2023-03-08T23:45:45.700Z,9.63
2023-03-08T23:48:29.677Z,10.30
2023-03-08T23:51:16.182Z,11.63
2023-03-08T23:54:02.156Z,10.93
2023-03-08T23:56:46.149Z,14.10
2023-03-08T23:59:31.576Z,14.00
